createdAt,value
2023-02-23T00:00:31.968Z,95567.94
2023-02-23T00:03:01.366Z,95577.34
2023-02-23T00:05:30.532Z,95575.28
2023-02-23T00:07:57.582Z,95570.28
2023-02-23T00:10:30.504Z,95565.56
2023-02-23T00:12:58.840Z,95570.28
2023-02-23T00:15:26.941Z,95552.47
2023-02-23T00:17:57.785Z,95568.44
2023-02-23T00:20:27.250Z,95560.59
2023-02-23T00:22:55.613Z,95566.88
2023-02-23T00:25:24.405Z,95582.34
2023-02-23T00:27:52.335Z,95586.28
2023-02-23T00:30:20.163Z,95569.75
2023-02-23T00:32:50.742Z,95575.25
2023-02-23T00:35:19.067Z,95581.03
2023-02-23T00:37:49.088Z,95580.22
2023-02-23T00:40:17.893Z,95582.31
2023-02-23T00:42:46.442Z,95571.34
2023-02-23T00:45:14.276Z,95574.44
2023-02-23T00:47:44.963Z,95576.56
2023-02-23T00:50:15.816Z,95590.97
2023-02-23T00:52:43.533Z,95565.28
2023-02-23T00:55:15.173Z,95587.03
2023-02-23T00:57:41.644Z,95557.69
2023-02-23T01:00:28.655Z,95576.53
2023-02-23T01:02:55.685Z,95576.81
2023-02-23T01:05:22.215Z,95574.97
2023-02-23T01:07:49.209Z,95577.88
2023-02-23T01:10:22.487Z,95577.63
2023-02-23T01:12:50.810Z,95587.03
2023-02-23T01:15:19.121Z,95584.94
2023-02-23T01:17:46.382Z,95591.22
2023-02-23T01:20:19.619Z,95561.34
2023-02-23T01:22:48.978Z,95576.25
2023-02-23T01:25:16.721Z,95584.94
2023-02-23T01:27:46.253Z,95577.59
2023-02-23T01:30:15.074Z,95583.09
2023-02-23T01:32:43.361Z,95560.06
2023-02-23T01:35:12.299Z,95572.88
2023-02-23T01:37:41.202Z,95576.53
2023-02-23T01:40:16.528Z,95547.72
2023-02-23T01:42:46.020Z,95579.94
2023-02-23T01:45:34.909Z,95579.38
2023-02-23T01:48:07.913Z,95566.81
2023-02-23T01:50:42.375Z,95559.78
2023-02-23T01:53:09.186Z,95570.78
2023-02-23T01:55:36.037Z,95576.03
2023-02-23T01:58:15.300Z,95560.00
2023-02-23T02:00:50.297Z,95577.03
2023-02-23T02:03:40.243Z,95574.97
2023-02-23T02:06:09.856Z,95578.59
2023-02-23T02:08:44.821Z,95557.16
2023-02-23T02:11:34.086Z,95580.72
2023-02-23T02:14:09.030Z,95580.72
2023-02-23T02:17:03.447Z,95559.22
2023-02-23T02:20:06.218Z,95554.75
2023-02-23T02:23:09.657Z,95541.38
2023-02-23T02:25:42.849Z,95551.34
2023-02-23T02:28:22.189Z,95551.63
2023-02-23T02:31:09.969Z,95550.56
2023-02-23T02:33:48.455Z,95549.25
2023-02-23T02:36:30.927Z,95528.31
2023-02-23T02:39:22.916Z,95551.91
2023-02-23T02:42:19.747Z,95545.59
2023-02-23T02:44:52.127Z,95544.56
2023-02-23T02:47:44.703Z,95538.81
2023-02-23T02:50:20.180Z,95550.84
2023-02-23T02:53:02.282Z,95534.66
2023-02-23T02:55:37.320Z,95534.38
2023-02-23T02:58:07.905Z,95524.16
2023-02-23T03:00:56.645Z,95528.88
2023-02-23T03:03:50.934Z,95550.38
2023-02-23T03:06:38.852Z,95546.19
2023-02-23T03:09:44.350Z,95551.66
2023-02-23T03:12:54.088Z,95539.66
2023-02-23T03:15:55.780Z,95548.81
2023-02-23T03:18:55.667Z,95546.19
2023-02-23T03:21:51.690Z,95551.69
2023-02-23T03:24:48.368Z,95561.38
2023-02-23T03:28:27.279Z,95553.00
2023-02-23T03:31:24.761Z,95554.56
2023-02-23T03:34:32.620Z,95532.31
2023-02-23T03:37:30.941Z,95539.38
2023-02-23T03:40:31.370Z,95550.41
2023-02-23T03:43:19.592Z,95548.53
2023-02-23T03:46:07.781Z,95529.69
2023-02-23T03:48:54.846Z,95533.84
2023-02-23T03:51:43.062Z,95557.19
2023-02-23T03:54:37.200Z,95561.66
2023-02-23T03:57:26.960Z,95549.31
2023-02-23T04:00:17.401Z,95554.00
2023-02-23T04:03:06.798Z,95562.91
2023-02-23T04:05:55.673Z,95524.59
2023-02-23T04:08:46.985Z,95538.75
2023-02-23T04:11:52.495Z,95567.59
2023-02-23T04:14:28.802Z,95563.38
2023-02-23T04:16:57.145Z,95522.72
2023-02-23T04:19:28.322Z,95556.31
2023-02-23T04:21:57.869Z,95546.31
2023-02-23T04:24:24.328Z,95467.63
2023-02-23T04:26:50.947Z,95557.59
2023-02-23T04:29:17.539Z,95567.03
2023-02-23T04:31:44.236Z,95533.44
2023-02-23T04:34:10.970Z,95501.16
2023-02-23T04:36:37.531Z,95567.47
2023-02-23T04:39:04.019Z,95571.16
2023-02-23T04:41:30.503Z,95523.47
2023-02-23T04:43:57.393Z,95532.66
2023-02-23T04:46:23.907Z,95528.66
2023-02-23T04:48:50.433Z,95473.28
2023-02-23T04:51:17.171Z,95539.81
2023-02-23T04:53:44.118Z,95557.44
2023-02-23T04:56:11.959Z,95547.94
2023-02-23T04:58:38.425Z,95552.41
2023-02-23T05:01:06.567Z,95536.66
2023-02-23T05:03:33.036Z,95564.66
2023-02-23T05:05:59.488Z,95571.19
2023-02-23T05:08:25.935Z,95570.97
2023-02-23T05:10:52.398Z,95578.81
2023-02-23T05:13:18.850Z,95565.66
2023-02-23T05:15:45.302Z,95558.78
2023-02-23T05:18:11.752Z,95569.00
2023-02-23T05:20:38.241Z,95537.50
2023-02-23T05:23:05.119Z,95506.31
2023-02-23T05:25:31.586Z,95507.84
2023-02-23T05:27:58.178Z,95536.28
2023-02-23T05:30:24.682Z,95537.34
2023-02-23T05:32:51.460Z,95515.31
2023-02-23T05:35:17.985Z,95558.84
2023-02-23T05:37:44.644Z,95595.56
2023-02-23T05:40:11.699Z,95523.47
2023-02-23T05:42:38.732Z,95538.44
2023-02-23T05:45:06.103Z,95535.28
2023-02-23T05:47:33.044Z,95577.78
2023-02-23T05:49:59.931Z,95527.94
2023-02-23T05:52:26.657Z,95577.06
2023-02-23T05:54:53.200Z,95494.16
2023-02-23T05:57:19.723Z,95483.66
2023-02-23T05:59:46.206Z,95560.56
2023-02-23T06:02:12.736Z,95587.38
2023-02-23T06:04:42.005Z,95552.19
2023-02-23T06:07:08.475Z,95569.56
2023-02-23T06:09:35.313Z,95594.75
2023-02-23T06:12:01.764Z,95563.50
2023-02-23T06:14:28.219Z,95606.56
2023-02-23T06:16:55.026Z,95507.63
2023-02-23T06:19:21.686Z,95571.66
2023-02-23T06:21:48.166Z,95609.41
2023-02-23T06:24:14.656Z,95581.66
2023-02-23T06:26:43.442Z,95602.13
2023-02-23T06:29:11.984Z,95602.13
2023-02-23T06:31:38.974Z,95597.66
2023-02-23T06:34:05.653Z,95609.50
2023-02-23T06:36:32.558Z,95598.50
2023-02-23T06:38:59.959Z,95616.34
2023-02-23T06:41:27.076Z,95573.34
2023-02-23T06:43:57.028Z,95614.53
2023-02-23T06:46:24.607Z,95615.59
2023-02-23T06:48:55.610Z,95604.56
2023-02-23T06:51:22.285Z,95606.91
2023-02-23T06:53:48.808Z,95612.72
2023-02-23T06:56:15.433Z,95602.75
2023-02-23T06:58:43.141Z,95531.97
2023-02-23T07:01:10.009Z,95621.91
2023-02-23T07:03:36.570Z,95625.63
2023-02-23T07:06:04.667Z,95610.66
2023-02-23T07:08:32.657Z,95617.22
2023-02-23T07:11:10.145Z,95615.66
2023-02-23T07:13:37.103Z,95642.16
2023-02-23T07:16:03.782Z,95625.34
2023-02-23T07:18:30.549Z,95632.16
2023-02-23T07:20:57.331Z,95616.69
2023-02-23T07:23:24.337Z,95624.81
2023-02-23T07:25:52.033Z,95610.94
2023-02-23T07:28:19.404Z,95639.50
2023-02-23T07:30:45.973Z,95641.88
2023-02-23T07:33:12.501Z,95618.53
2023-02-23T07:35:39.012Z,95616.16
2023-02-23T07:38:07.366Z,95608.03
2023-02-23T07:40:33.927Z,95610.13
2023-02-23T07:43:00.659Z,95619.03
2023-02-23T07:45:27.281Z,95603.84
2023-02-23T07:47:53.783Z,95606.22
2023-02-23T07:50:20.247Z,95581.81
2023-02-23T07:52:46.755Z,95633.19
2023-02-23T07:55:13.260Z,95630.31
2023-02-23T07:57:39.725Z,95641.56
2023-02-23T08:00:07.094Z,95614.53
2023-02-23T08:02:39.730Z,95615.56
2023-02-23T08:05:06.626Z,95607.44
2023-02-23T08:07:33.762Z,95625.78
2023-02-23T08:10:00.648Z,95635.72
2023-02-23T08:12:27.383Z,95639.56
2023-02-23T08:14:54.273Z,95651.75
2023-02-23T08:17:20.757Z,95635.34
2023-02-23T08:19:47.316Z,95645.84
2023-02-23T08:22:13.780Z,95597.84
2023-02-23T08:24:40.229Z,95641.31
2023-02-23T08:27:06.762Z,95616.84
2023-02-23T08:29:34.872Z,95620.16
2023-02-23T08:32:03.849Z,95646.69
2023-02-23T08:34:31.125Z,95643.88
2023-02-23T08:36:57.696Z,95609.63
2023-02-23T08:39:24.409Z,95626.94
2023-02-23T08:41:50.931Z,95635.81
2023-02-23T08:44:17.421Z,95632.94
2023-02-23T08:46:45.355Z,95569.25
2023-02-23T08:49:11.962Z,95639.75
2023-02-23T08:51:40.785Z,95626.44
2023-02-23T08:54:12.637Z,95632.63
2023-02-23T08:56:39.101Z,95613.88
2023-02-23T08:59:05.737Z,95618.13
2023-02-23T09:01:32.838Z,95646.69
2023-02-23T09:04:00.303Z,95637.41
2023-02-23T09:06:27.520Z,95641.88
2023-02-23T09:08:55.209Z,95647.53
2023-02-23T09:11:22.949Z,95608.84
2023-02-23T09:13:49.957Z,95643.00
2023-02-23T09:16:17.046Z,95618.88
2023-02-23T09:18:43.556Z,95616.91
2023-02-23T09:21:22.182Z,95634.41
2023-02-23T09:23:51.244Z,95618.16
2023-02-23T09:26:19.277Z,95646.34
2023-02-23T09:28:46.353Z,95644.31
2023-02-23T09:31:15.439Z,95656.97
2023-02-23T09:33:42.623Z,95653.28
2023-02-23T09:36:12.789Z,95595.75
2023-02-23T09:38:39.998Z,95624.72
2023-02-23T09:41:30.269Z,95643.94
2023-02-23T09:44:29.288Z,95642.56
2023-02-23T09:47:32.602Z,95653.59
2023-02-23T09:50:02.622Z,95651.22
2023-02-23T09:52:40.926Z,95637.81
2023-02-23T09:55:11.466Z,95652.63
2023-02-23T09:57:42.898Z,95653.91
2023-02-23T10:00:27.323Z,95657.56
2023-02-23T10:03:30.921Z,95669.97
2023-02-23T10:06:06.347Z,95668.41
2023-02-23T10:08:46.997Z,95655.72
2023-02-23T10:11:41.828Z,95668.41
2023-02-23T10:14:31.450Z,95666.84
2023-02-23T10:17:30.338Z,95658.22
2023-02-23T10:20:11.988Z,95661.78
2023-02-23T10:22:40.672Z,95635.25
2023-02-23T10:25:22.698Z,95662.16
2023-02-23T10:27:55.940Z,95647.59
2023-02-23T10:30:31.788Z,95661.00
2023-02-23T10:33:22.443Z,95667.56
2023-02-23T10:35:52.363Z,95663.78
2023-02-23T10:38:20.455Z,95663.72
2023-02-23T10:40:51.144Z,95658.44
2023-02-23T10:43:17.594Z,95638.59
2023-02-23T10:45:47.256Z,95659.16
2023-02-23T10:48:19.483Z,95663.50
2023-02-23T10:50:49.075Z,95655.38
2023-02-23T10:53:24.252Z,95649.38
2023-02-23T10:56:05.433Z,95652.94
2023-02-23T10:58:46.764Z,95625.28
2023-02-23T11:01:33.592Z,95654.16
2023-02-23T11:04:23.657Z,95653.00
2023-02-23T11:06:52.992Z,95650.72
2023-02-23T11:09:41.252Z,95657.13
2023-02-23T11:12:35.860Z,95648.16
2023-02-23T11:15:48.596Z,95648.53
2023-02-23T11:18:24.522Z,95647.03
2023-02-23T11:20:51.645Z,95642.53
2023-02-23T11:23:23.276Z,95625.72
2023-02-23T11:25:55.512Z,95640.41
2023-02-23T11:28:30.111Z,95646.06
2023-02-23T11:31:01.649Z,95637.88
2023-02-23T11:33:35.772Z,95627.69
2023-02-23T11:36:35.713Z,95633.19
2023-02-23T11:39:14.220Z,95630.78
2023-02-23T11:41:40.645Z,95618.53
2023-02-23T11:44:07.184Z,95621.66
2023-02-23T11:46:38.207Z,95607.97
2023-02-23T11:49:17.860Z,95612.28
2023-02-23T11:51:49.865Z,95611.09
2023-02-23T11:54:57.487Z,95598.34
2023-02-23T11:57:28.523Z,95584.78
2023-02-23T11:59:56.656Z,95599.94
2023-02-23T12:02:31.146Z,95593.69
2023-02-23T12:05:10.103Z,95593.69
2023-02-23T12:07:41.558Z,95601.69
2023-02-23T12:10:18.112Z,95598.50
2023-02-23T12:13:12.980Z,95600.16
2023-02-23T12:15:55.765Z,95589.19
2023-02-23T12:18:44.112Z,95595.88
2023-02-23T12:21:29.841Z,95590.78
2023-02-23T12:24:02.624Z,95570.03
2023-02-23T12:26:31.686Z,95578.34
2023-02-23T12:29:05.490Z,95557.22
2023-02-23T12:31:48.134Z,95572.28
2023-02-23T12:34:34.680Z,95585.19
2023-02-23T12:37:15.754Z,95563.28
2023-02-23T12:39:47.287Z,95566.13
2023-02-23T12:42:30.713Z,95551.75
2023-02-23T12:45:02.984Z,95586.84
2023-02-23T12:47:51.748Z,95571.00
2023-02-23T12:50:32.069Z,95566.59
2023-02-23T12:53:06.952Z,95584.50
2023-02-23T12:55:48.795Z,95572.28
2023-02-23T12:58:29.082Z,95582.56
2023-02-23T13:01:16.290Z,95579.22
2023-02-23T13:04:05.523Z,95573.28
2023-02-23T13:07:05.047Z,95566.00
2023-02-23T13:09:40.989Z,95564.47
2023-02-23T13:12:10.421Z,95568.44
2023-02-23T13:14:48.189Z,95565.16
2023-02-23T13:17:38.534Z,95545.28
2023-02-23T13:20:17.002Z,95564.06
2023-02-23T13:22:55.509Z,95565.91
2023-02-23T13:25:28.222Z,95552.97
2023-02-23T13:28:00.346Z,95556.72
2023-02-23T13:30:32.338Z,95557.00
2023-02-23T13:33:18.528Z,95555.53
2023-02-23T13:35:45.043Z,95532.16
2023-02-23T13:38:22.525Z,95534.59
2023-02-23T13:40:58.597Z,95551.81
2023-02-23T13:43:32.296Z,95558.88
2023-02-23T13:46:30.199Z,95548.13
2023-02-23T13:49:02.911Z,95548.59
2023-02-23T13:51:52.137Z,95539.28
2023-02-23T13:54:22.797Z,95544.00
2023-02-23T13:56:55.044Z,95547.53
2023-02-23T13:59:33.349Z,95540.34
2023-02-23T14:02:06.575Z,95539.84
2023-02-23T14:04:42.037Z,95544.16
2023-02-23T14:07:29.887Z,95535.97
2023-02-23T14:10:25.647Z,95543.69
2023-02-23T14:13:14.416Z,95539.06
2023-02-23T14:15:44.124Z,95524.22
2023-02-23T14:18:20.788Z,95540.47
2023-02-23T14:21:05.274Z,95538.25
2023-02-23T14:23:56.790Z,95537.03
2023-02-23T14:26:29.383Z,95539.28
2023-02-23T14:29:26.898Z,95536.97
2023-02-23T14:31:58.360Z,95535.56
2023-02-23T14:34:43.900Z,95529.88
2023-02-23T14:37:25.685Z,95526.88
2023-02-23T14:39:56.499Z,95534.53
2023-02-23T14:42:29.818Z,95539.13
2023-02-23T14:45:02.570Z,95526.91
2023-02-23T14:47:29.087Z,95530.13
2023-02-23T14:50:01.557Z,95530.41
2023-02-23T14:52:41.121Z,95527.69
2023-02-23T14:55:10.686Z,95540.19
2023-02-23T14:57:39.571Z,95525.03
2023-02-23T15:00:15.334Z,95537.56
2023-02-23T15:02:55.745Z,95535.91
2023-02-23T15:05:25.420Z,95533.25
2023-02-23T15:07:54.425Z,95510.94
2023-02-23T15:10:46.041Z,95535.41
2023-02-23T15:13:29.088Z,95540.59
2023-02-23T15:15:57.536Z,95527.38
2023-02-23T15:19:22.565Z,95533.44
2023-02-23T15:21:58.247Z,95529.53
2023-02-23T15:24:33.487Z,95534.03
2023-02-23T15:27:00.059Z,95522.00
2023-02-23T15:29:33.543Z,95533.03
2023-02-23T15:32:19.335Z,95513.88
2023-02-23T15:34:46.177Z,95523.63
2023-02-23T15:37:36.279Z,95532.84
2023-02-23T15:40:24.335Z,95520.03
2023-02-23T15:42:55.412Z,95524.44
2023-02-23T15:45:34.971Z,95528.91
2023-02-23T15:48:18.227Z,95519.75
2023-02-23T15:50:52.952Z,95520.06
2023-02-23T15:53:30.265Z,95521.31
2023-02-23T15:56:03.330Z,95529.22
2023-02-23T15:58:44.579Z,95530.19
2023-02-23T16:01:27.501Z,95528.31
2023-02-23T16:03:57.357Z,95524.13
2023-02-23T16:06:26.706Z,95516.84
2023-02-23T16:09:22.181Z,95513.03
2023-02-23T16:11:52.666Z,95509.78
2023-02-23T16:14:21.163Z,95521.25
2023-02-23T16:17:08.438Z,95508.34
2023-02-23T16:19:40.657Z,95511.38
2023-02-23T16:22:21.618Z,95466.28
2023-02-23T16:24:59.222Z,95508.44
2023-02-23T16:27:28.161Z,95509.88
2023-02-23T16:30:23.173Z,95504.97
2023-02-23T16:33:06.082Z,95523.63
2023-02-23T16:35:45.436Z,95529.78
2023-02-23T16:38:34.474Z,95522.22
2023-02-23T16:41:03.709Z,95515.75
2023-02-23T16:43:31.688Z,95531.88
2023-02-23T16:45:58.426Z,95513.84
2023-02-23T16:48:24.914Z,95500.41
2023-02-23T16:50:51.602Z,95526.63
2023-02-23T16:53:18.250Z,95525.91
2023-02-23T16:55:52.736Z,95531.94
2023-02-23T16:58:25.176Z,95534.66
2023-02-23T17:00:53.632Z,95531.81
2023-02-23T17:03:21.780Z,95491.13
2023-02-23T17:05:48.745Z,95530.66
2023-02-23T17:08:15.811Z,95516.03
2023-02-23T17:10:45.380Z,95522.94
2023-02-23T17:13:21.145Z,95528.00
2023-02-23T17:15:53.556Z,95536.66
2023-02-23T17:20:56.859Z,95514.34
2023-02-23T17:23:27.704Z,95540.66
2023-02-23T17:25:55.855Z,95537.44
2023-02-23T17:28:22.591Z,95536.81
2023-02-23T17:30:49.327Z,95536.13
2023-02-23T17:33:16.036Z,95531.56
2023-02-23T17:35:42.754Z,95534.56
2023-02-23T17:38:09.591Z,95541.84
2023-02-23T17:40:37.806Z,95542.94
2023-02-23T17:43:07.348Z,95530.47
2023-02-23T17:45:34.474Z,95537.69
2023-02-23T17:48:00.929Z,95526.94
2023-02-23T17:50:28.534Z,95555.75
2023-02-23T17:52:55.190Z,95542.00
2023-02-23T17:55:22.122Z,95557.28
2023-02-23T17:57:48.893Z,95546.63
2023-02-23T18:00:17.087Z,95526.75
2023-02-23T18:02:45.233Z,95550.59
2023-02-23T18:05:12.931Z,95543.88
2023-02-23T18:07:39.686Z,95521.34
2023-02-23T18:10:06.838Z,95556.16
2023-02-23T18:12:33.665Z,95548.09
2023-02-23T18:15:00.205Z,95533.97
2023-02-23T18:17:26.678Z,95546.31
2023-02-23T18:19:53.203Z,95542.13
2023-02-23T18:22:19.663Z,95552.09
2023-02-23T18:24:46.193Z,95555.50
2023-02-23T18:27:12.903Z,95547.13
2023-02-23T18:29:39.570Z,95551.84
2023-02-23T18:32:07.762Z,95552.41
2023-02-23T18:34:34.621Z,95560.81
2023-02-23T18:37:02.325Z,95551.66
2023-02-23T18:39:30.978Z,95527.31
2023-02-23T18:41:57.677Z,95549.59
2023-02-23T18:44:24.360Z,95539.91
2023-02-23T18:46:50.970Z,95541.44
2023-02-23T18:49:20.725Z,95550.91
2023-02-23T18:51:47.914Z,95535.44
2023-02-23T18:54:18.593Z,95539.38
2023-02-23T18:56:46.970Z,95552.47
2023-02-23T18:59:14.125Z,95551.16
2023-02-23T19:01:45.216Z,95547.22
2023-02-23T19:04:12.433Z,95527.06
2023-02-23T19:06:42.693Z,95527.31
2023-02-23T19:09:12.327Z,95546.72
2023-02-23T19:11:39.625Z,95548.78
2023-02-23T19:14:10.273Z,95535.97
2023-02-23T19:16:37.518Z,95547.22
2023-02-23T19:19:06.604Z,95543.06
2023-02-23T19:21:33.699Z,95529.41
2023-02-23T19:24:02.431Z,95537.28
2023-02-23T19:26:30.222Z,95530.72
2023-02-23T19:28:57.334Z,95544.09
2023-02-23T19:31:26.052Z,95538.81
2023-02-23T19:33:55.928Z,95553.53
2023-02-23T19:36:29.367Z,95554.28
2023-02-23T19:39:10.176Z,95548.78
2023-02-23T19:41:38.819Z,95559.25
2023-02-23T19:44:05.653Z,95556.38
2023-02-23T19:46:32.182Z,95530.91
2023-02-23T19:48:58.679Z,95536.94
2023-02-23T19:51:25.195Z,95534.03
2023-02-23T19:53:55.499Z,95548.16
2023-02-23T19:56:24.969Z,95557.63
2023-02-23T19:58:52.229Z,95557.88
2023-02-23T20:01:21.786Z,95547.13
2023-02-23T20:03:55.214Z,95555.25
2023-02-23T20:06:25.846Z,95548.66
2023-02-23T20:08:55.001Z,95545.78
2023-02-23T20:11:22.355Z,95548.66
2023-02-23T20:13:50.841Z,95541.28
2023-02-23T20:16:17.626Z,95539.97
2023-02-23T20:18:44.941Z,95545.97
2023-02-23T20:21:24.897Z,95555.41
2023-02-23T20:23:51.673Z,95543.88
2023-02-23T20:26:22.911Z,95550.44
2023-02-23T20:28:50.059Z,95543.13
2023-02-23T20:31:21.593Z,95548.97
2023-02-23T20:33:50.241Z,95535.56
2023-02-23T20:36:18.385Z,95537.16
2023-02-23T20:38:44.823Z,95549.72
2023-02-23T20:41:11.884Z,95537.41
2023-02-23T20:43:39.212Z,95547.41
2023-02-23T20:46:06.619Z,95520.97
2023-02-23T20:48:34.792Z,95540.63
2023-02-23T20:51:01.813Z,95510.19
2023-02-23T20:53:29.206Z,95527.78
2023-02-23T20:55:55.905Z,95531.97
2023-02-23T20:58:25.217Z,95546.13
2023-02-23T21:00:57.023Z,95539.34
2023-02-23T21:03:25.366Z,95543.53
2023-02-23T21:05:52.408Z,95539.88
2023-02-23T21:08:20.049Z,95521.81
2023-02-23T21:10:48.670Z,95529.13
2023-02-23T21:13:15.957Z,95535.69
2023-02-23T21:15:44.400Z,95518.63
2023-02-23T21:18:11.653Z,95531.22
2023-02-23T21:20:39.533Z,95523.88
2023-02-23T21:23:06.569Z,95506.31
2023-02-23T21:25:33.199Z,95497.69
2023-02-23T21:28:02.666Z,95528.88
2023-02-23T21:30:29.549Z,95526.50
2023-02-23T21:32:57.591Z,95510.28
2023-02-23T21:35:24.267Z,95507.38
2023-02-23T21:37:51.530Z,95529.91
2023-02-23T21:40:23.260Z,95521.78
2023-02-23T21:42:50.715Z,95519.44
2023-02-23T21:45:18.175Z,95522.03
2023-02-23T21:47:46.235Z,95509.22
2023-02-23T21:50:15.914Z,95524.66
2023-02-23T21:52:43.952Z,95528.88
2023-02-23T21:55:21.289Z,95511.03
2023-02-23T21:57:49.134Z,95512.09
2023-02-23T22:00:19.314Z,95513.41
2023-02-23T22:02:46.537Z,95508.44
2023-02-23T22:05:15.135Z,95519.19
2023-02-23T22:07:47.783Z,95516.78
2023-02-23T22:10:14.429Z,95502.13
2023-02-23T22:12:40.850Z,95497.66
2023-02-23T22:15:08.174Z,95502.38
2023-02-23T22:17:36.007Z,95505.75
2023-02-23T22:20:05.364Z,95504.72
2023-02-23T22:22:35.906Z,95508.38
2023-02-23T22:25:07.415Z,95506.78
2023-02-23T22:27:33.856Z,95500.53
2023-02-23T22:30:01.748Z,95493.94
2023-02-23T22:32:32.642Z,95513.88
2023-02-23T22:35:00.637Z,95508.38
2023-02-23T22:37:29.784Z,95509.66
2023-02-23T22:39:57.833Z,95484.28
2023-02-23T22:42:24.464Z,95489.50
2023-02-23T22:44:51.183Z,95501.06
2023-02-23T22:47:17.647Z,95467.00
2023-02-23T22:49:46.719Z,95485.34
2023-02-23T22:52:13.322Z,95489.25
2023-02-23T22:54:39.808Z,95481.69
2023-02-23T22:57:06.590Z,95469.09
2023-02-23T22:59:33.204Z,95479.59
2023-02-23T23:01:59.641Z,95487.97
2023-02-23T23:04:26.201Z,95450.78
2023-02-23T23:06:52.783Z,95477.75
2023-02-23T23:09:21.112Z,95481.44
2023-02-23T23:11:50.814Z,95470.44
2023-02-23T23:14:19.312Z,95459.69
2023-02-23T23:16:51.732Z,95452.38
2023-02-23T23:19:25.683Z,95445.59
2023-02-23T23:21:55.053Z,95466.81
2023-02-23T23:24:23.376Z,95461.06
2023-02-23T23:26:55.497Z,95450.31
2023-02-23T23:29:23.626Z,95462.91
2023-02-23T23:31:51.607Z,95441.91
2023-02-23T23:34:21.490Z,95436.16
2023-02-23T23:36:49.255Z,95459.72
2023-02-23T23:39:21.740Z,95457.63
2023-02-23T23:41:49.806Z,95458.69
2023-02-23T23:44:20.137Z,95436.16
2023-02-23T23:46:47.789Z,95451.63
2023-02-23T23:49:17.678Z,95456.06
2023-02-23T23:51:50.041Z,95438.28
2023-02-23T23:54:39.039Z,95442.47
2023-02-23T23:57:06.660Z,95456.34
2023-02-23T23:59:34.745Z,95443.50
